sensor_id;sensor_type;location;lat;lon;timestamp;P1;durP1;ratioP1;P2;durP2;ratioP2
11537;SDS011;50159;49.426;11.182;2023-05-16T00:01:44;5.80;;;5.17;;
11537;SDS011;50159;49.426;11.182;2023-05-16T00:04:11;4.90;;;4.60;;
11537;SDS011;50159;49.426;11.182;2023-05-16T00:06:38;9.03;;;5.20;;
11537;SDS011;50159;49.426;11.182;2023-05-16T00:09:05;5.03;;;4.73;;
11537;SDS011;50159;49.426;11.182;2023-05-16T00:11:32;5.60;;;5.10;;
11537;SDS011;50159;49.426;11.182;2023-05-16T00:13:58;5.70;;;5.30;;
11537;SDS011;50159;49.426;11.182;2023-05-16T00:16:26;5.80;;;5.30;;
11537;SDS011;50159;49.426;11.182;2023-05-16T00:18:55;5.40;;;5.00;;
11537;SDS011;50159;49.426;11.182;2023-05-16T00:21:23;5.63;;;5.07;;
11537;SDS011;50159;49.426;11.182;2023-05-16T00:23:50;5.67;;;5.27;;
11537;SDS011;50159;49.426;11.182;2023-05-16T00:26:18;8.30;;;5.63;;
11537;SDS011;50159;49.426;11.182;2023-05-16T00:28:44;5.10;;;4.80;;
11537;SDS011;50159;49.426;11.182;2023-05-16T00:31:11;5.80;;;5.20;;
11537;SDS011;50159;49.426;11.182;2023-05-16T00:33:38;5.80;;;5.40;;
11537;SDS011;50159;49.426;11.182;2023-05-16T00:36:04;5.93;;;5.13;;
11537;SDS011;50159;49.426;11.182;2023-05-16T00:38:31;5.47;;;5.07;;
11537;SDS011;50159;49.426;11.182;2023-05-16T00:40:58;5.37;;;5.07;;
11537;SDS011;50159;49.426;11.182;2023-05-16T00:43:24;5.33;;;5.03;;
11537;SDS011;50159;49.426;11.182;2023-05-16T00:45:51;5.77;;;5.27;;
11537;SDS011;50159;49.426;11.182;2023-05-16T00:48:18;5.07;;;4.77;;
11537;SDS011;50159;49.426;11.182;2023-05-16T00:50:44;7.83;;;5.43;;
11537;SDS011;50159;49.426;11.182;2023-05-16T00:53:12;5.00;;;4.57;;
11537;SDS011;50159;49.426;11.182;2023-05-16T00:55:39;5.70;;;5.30;;
11537;SDS011;50159;49.426;11.182;2023-05-16T00:58:06;6.83;;;5.30;;
11537;SDS011;50159;49.426;11.182;2023-05-16T01:00:32;6.47;;;5.93;;
11537;SDS011;50159;49.426;11.182;2023-05-16T01:02:59;5.80;;;5.40;;
11537;SDS011;50159;49.426;11.182;2023-05-16T01:05:27;4.57;;;4.37;;
11537;SDS011;50159;49.426;11.182;2023-05-16T01:07:54;5.13;;;4.83;;
11537;SDS011;50159;49.426;11.182;2023-05-16T01:10:21;4.93;;;4.63;;
11537;SDS011;50159;49.426;11.182;2023-05-16T01:15:20;5.00;;;4.67;;
11537;SDS011;50159;49.426;11.182;2023-05-16T01:20:48;5.47;;;5.07;;
11537;SDS011;50159;49.426;11.182;2023-05-16T01:28:52;5.07;;;4.77;;
11537;SDS011;50159;49.426;11.182;2023-05-16T01:31:20;4.83;;;4.53;;
11537;SDS011;50159;49.426;11.182;2023-05-16T01:33:48;5.43;;;5.10;;
11537;SDS011;50159;49.426;11.182;2023-05-16T01:39:06;5.47;;;5.00;;
11537;SDS011;50159;49.426;11.182;2023-05-16T01:42:08;6.20;;;5.60;;
11537;SDS011;50159;49.426;11.182;2023-05-16T01:47:11;5.10;;;4.77;;
11537;SDS011;50159;49.426;11.182;2023-05-16T01:49:44;5.50;;;5.13;;
11537;SDS011;50159;49.426;11.182;2023-05-16T01:52:21;5.70;;;5.30;;
11537;SDS011;50159;49.426;11.182;2023-05-16T01:54:57;5.03;;;4.73;;
11537;SDS011;50159;49.426;11.182;2023-05-16T01:57:25;5.43;;;5.03;;
11537;SDS011;50159;49.426;11.182;2023-05-16T01:59:54;5.80;;;5.40;;
11537;SDS011;50159;49.426;11.182;2023-05-16T02:02:22;5.10;;;4.80;;
11537;SDS011;50159;49.426;11.182;2023-05-16T02:04:49;5.50;;;5.00;;
11537;SDS011;50159;49.426;11.182;2023-05-16T02:07:16;5.17;;;4.80;;
11537;SDS011;50159;49.426;11.182;2023-05-16T02:09:43;6.13;;;5.67;;
11537;SDS011;50159;49.426;11.182;2023-05-16T02:12:10;5.93;;;5.53;;
11537;SDS011;50159;49.426;11.182;2023-05-16T02:14:36;5.67;;;5.27;;
11537;SDS011;50159;49.426;11.182;2023-05-16T02:17:03;5.47;;;5.07;;
11537;SDS011;50159;49.426;11.182;2023-05-16T02:19:30;5.43;;;5.03;;
11537;SDS011;50159;49.426;11.182;2023-05-16T02:21:57;6.80;;;5.37;;
11537;SDS011;50159;49.426;11.182;2023-05-16T02:24:23;5.77;;;5.27;;
11537;SDS011;50159;49.426;11.182;2023-05-16T02:26:50;5.73;;;5.23;;
11537;SDS011;50159;49.426;11.182;2023-05-16T02:29:17;5.83;;;5.43;;
11537;SDS011;50159;49.426;11.182;2023-05-16T02:31:44;5.53;;;5.13;;
11537;SDS011;50159;49.426;11.182;2023-05-16T02:34:11;5.50;;;5.20;;
11537;SDS011;50159;49.426;11.182;2023-05-16T02:36:37;5.67;;;5.27;;
11537;SDS011;50159;49.426;11.182;2023-05-16T02:39:04;5.20;;;4.90;;
11537;SDS011;50159;49.426;11.182;2023-05-16T02:41:31;5.50;;;5.20;;
11537;SDS011;50159;49.426;11.182;2023-05-16T02:43:58;8.63;;;5.57;;
11537;SDS011;50159;49.426;11.182;2023-05-16T02:46:28;5.47;;;5.17;;
11537;SDS011;50159;49.426;11.182;2023-05-16T02:48:56;5.53;;;5.20;;
11537;SDS011;50159;49.426;11.182;2023-05-16T02:51:24;5.47;;;5.10;;
11537;SDS011;50159;49.426;11.182;2023-05-16T02:53:51;6.00;;;5.60;;
11537;SDS011;50159;49.426;11.182;2023-05-16T02:56:19;5.67;;;5.37;;
11537;SDS011;50159;49.426;11.182;2023-05-16T02:58:47;5.90;;;5.40;;
11537;SDS011;50159;49.426;11.182;2023-05-16T03:01:15;5.93;;;5.53;;
11537;SDS011;50159;49.426;11.182;2023-05-16T03:03:42;5.33;;;5.03;;
11537;SDS011;50159;49.426;11.182;2023-05-16T03:06:09;5.30;;;5.00;;
11537;SDS011;50159;49.426;11.182;2023-05-16T03:08:36;5.73;;;5.40;;
11537;SDS011;50159;49.426;11.182;2023-05-16T03:11:03;5.53;;;5.23;;
11537;SDS011;50159;49.426;11.182;2023-05-16T03:13:29;6.03;;;5.67;;
11537;SDS011;50159;49.426;11.182;2023-05-16T03:15:56;5.90;;;5.40;;
11537;SDS011;50159;49.426;11.182;2023-05-16T03:18:23;6.10;;;5.60;;
11537;SDS011;50159;49.426;11.182;2023-05-16T03:20:49;5.40;;;5.00;;
11537;SDS011;50159;49.426;11.182;2023-05-16T03:23:18;6.27;;;5.77;;
11537;SDS011;50159;49.426;11.182;2023-05-16T03:25:46;5.70;;;5.30;;
11537;SDS011;50159;49.426;11.182;2023-05-16T03:28:13;6.67;;;6.00;;
11537;SDS011;50159;49.426;11.182;2023-05-16T03:30:40;6.50;;;6.10;;
11537;SDS011;50159;49.426;11.182;2023-05-16T03:33:07;7.30;;;6.13;;
11537;SDS011;50159;49.426;11.182;2023-05-16T03:35:34;6.10;;;5.70;;
11537;SDS011;50159;49.426;11.182;2023-05-16T03:38:02;6.37;;;5.90;;
11537;SDS011;50159;49.426;11.182;2023-05-16T03:40:29;5.93;;;5.53;;
11537;SDS011;50159;49.426;11.182;2023-05-16T03:42:56;6.10;;;5.60;;
11537;SDS011;50159;49.426;11.182;2023-05-16T03:45:22;5.77;;;5.33;;
11537;SDS011;50159;49.426;11.182;2023-05-16T03:47:49;5.60;;;5.20;;
11537;SDS011;50159;49.426;11.182;2023-05-16T03:50:16;5.03;;;4.73;;
11537;SDS011;50159;49.426;11.182;2023-05-16T03:52:43;6.73;;;6.13;;
11537;SDS011;50159;49.426;11.182;2023-05-16T03:55:10;6.60;;;6.10;;
11537;SDS011;50159;49.426;11.182;2023-05-16T03:57:39;6.07;;;5.67;;
11537;SDS011;50159;49.426;11.182;2023-05-16T04:00:10;6.60;;;6.10;;
11537;SDS011;50159;49.426;11.182;2023-05-16T04:02:38;7.17;;;6.23;;
11537;SDS011;50159;49.426;11.182;2023-05-16T04:05:09;8.10;;;7.27;;
11537;SDS011;50159;49.426;11.182;2023-05-16T04:07:36;11.27;;;7.37;;
11537;SDS011;50159;49.426;11.182;2023-05-16T04:10:03;10.63;;;8.97;;
11537;SDS011;50159;49.426;11.182;2023-05-16T04:12:31;11.33;;;8.67;;
11537;SDS011;50159;49.426;11.182;2023-05-16T04:14:58;10.67;;;8.90;;
11537;SDS011;50159;49.426;11.182;2023-05-16T04:17:25;13.77;;;9.43;;
11537;SDS011;50159;49.426;11.182;2023-05-16T04:19:51;11.17;;;9.20;;
11537;SDS011;50159;49.426;11.182;2023-05-16T04:22:19;14.17;;;10.13;;
11537;SDS011;50159;49.426;11.182;2023-05-16T04:24:48;10.63;;;9.40;;
11537;SDS011;50159;49.426;11.182;2023-05-16T04:27:15;10.37;;;8.60;;
11537;SDS011;50159;49.426;11.182;2023-05-16T04:29:41;9.73;;;8.73;;
11537;SDS011;50159;49.426;11.182;2023-05-16T04:32:08;10.63;;;8.83;;
11537;SDS011;50159;49.426;11.182;2023-05-16T04:34:37;9.03;;;7.97;;
11537;SDS011;50159;49.426;11.182;2023-05-16T04:37:06;8.53;;;7.50;;
11537;SDS011;50159;49.426;11.182;2023-05-16T04:39:33;8.43;;;7.60;;
11537;SDS011;50159;49.426;11.182;2023-05-16T04:42:01;8.73;;;7.83;;
11537;SDS011;50159;49.426;11.182;2023-05-16T04:44:29;7.60;;;6.90;;
11537;SDS011;50159;49.426;11.182;2023-05-16T04:46:56;10.10;;;7.40;;
11537;SDS011;50159;49.426;11.182;2023-05-16T04:49:23;7.63;;;6.93;;
11537;SDS011;50159;49.426;11.182;2023-05-16T04:51:50;7.67;;;6.97;;
11537;SDS011;50159;49.426;11.182;2023-05-16T04:54:16;8.10;;;7.37;;
11537;SDS011;50159;49.426;11.182;2023-05-16T04:56:43;8.73;;;7.83;;
11537;SDS011;50159;49.426;11.182;2023-05-16T04:59:10;7.97;;;6.83;;
11537;SDS011;50159;49.426;11.182;2023-05-16T05:01:36;8.33;;;7.53;;
11537;SDS011;50159;49.426;11.182;2023-05-16T05:04:04;7.90;;;7.20;;
11537;SDS011;50159;49.426;11.182;2023-05-16T05:06:31;7.73;;;7.03;;
11537;SDS011;50159;49.426;11.182;2023-05-16T05:08:58;7.10;;;6.53;;
11537;SDS011;50159;49.426;11.182;2023-05-16T05:11:24;7.80;;;7.10;;
11537;SDS011;50159;49.426;11.182;2023-05-16T05:13:52;7.90;;;7.10;;
11537;SDS011;50159;49.426;11.182;2023-05-16T05:16:19;7.77;;;7.00;;
11537;SDS011;50159;49.426;11.182;2023-05-16T05:18:45;7.87;;;7.20;;
11537;SDS011;50159;49.426;11.182;2023-05-16T05:21:12;7.70;;;7.10;;
11537;SDS011;50159;49.426;11.182;2023-05-16T05:23:39;8.53;;;7.77;;
11537;SDS011;50159;49.426;11.182;2023-05-16T05:26:06;8.57;;;7.83;;
11537;SDS011;50159;49.426;11.182;2023-05-16T05:28:32;7.90;;;7.10;;
11537;SDS011;50159;49.426;11.182;2023-05-16T05:30:59;8.10;;;7.40;;
11537;SDS011;50159;49.426;11.182;2023-05-16T05:33:26;7.87;;;7.03;;
11537;SDS011;50159;49.426;11.182;2023-05-16T05:35:56;8.00;;;7.33;;
11537;SDS011;50159;49.426;11.182;2023-05-16T05:38:22;7.47;;;6.87;;
11537;SDS011;50159;49.426;11.182;2023-05-16T05:40:49;7.23;;;6.67;;
11537;SDS011;50159;49.426;11.182;2023-05-16T05:43:16;7.00;;;6.40;;
11537;SDS011;50159;49.426;11.182;2023-05-16T05:45:43;6.60;;;6.10;;
11537;SDS011;50159;49.426;11.182;2023-05-16T05:48:10;6.20;;;5.80;;
11537;SDS011;50159;49.426;11.182;2023-05-16T05:50:38;6.30;;;5.83;;
11537;SDS011;50159;49.426;11.182;2023-05-16T05:53:04;7.13;;;6.43;;
11537;SDS011;50159;49.426;11.182;2023-05-16T05:55:31;6.53;;;6.03;;
11537;SDS011;50159;49.426;11.182;2023-05-16T05:57:58;6.93;;;6.30;;
11537;SDS011;50159;49.426;11.182;2023-05-16T06:00:24;6.27;;;5.80;;
11537;SDS011;50159;49.426;11.182;2023-05-16T06:02:51;6.37;;;5.87;;
11537;SDS011;50159;49.426;11.182;2023-05-16T06:05:18;6.20;;;5.80;;
11537;SDS011;50159;49.426;11.182;2023-05-16T06:07:45;6.03;;;5.50;;
11537;SDS011;50159;49.426;11.182;2023-05-16T06:10:12;6.33;;;5.83;;
11537;SDS011;50159;49.426;11.182;2023-05-16T06:12:38;6.00;;;5.60;;
11537;SDS011;50159;49.426;11.182;2023-05-16T06:15:05;6.30;;;5.90;;
11537;SDS011;50159;49.426;11.182;2023-05-16T06:17:32;6.27;;;5.77;;
11537;SDS011;50159;49.426;11.182;2023-05-16T06:19:59;6.17;;;5.77;;
11537;SDS011;50159;49.426;11.182;2023-05-16T06:22:26;6.10;;;5.60;;
11537;SDS011;50159;49.426;11.182;2023-05-16T06:24:53;6.07;;;5.73;;
11537;SDS011;50159;49.426;11.182;2023-05-16T06:27:20;5.83;;;5.43;;
11537;SDS011;50159;49.426;11.182;2023-05-16T06:29:46;6.17;;;5.67;;
11537;SDS011;50159;49.426;11.182;2023-05-16T06:32:13;5.17;;;4.87;;
11537;SDS011;50159;49.426;11.182;2023-05-16T06:34:40;5.80;;;5.30;;
11537;SDS011;50159;49.426;11.182;2023-05-16T06:37:06;5.20;;;4.90;;
11537;SDS011;50159;49.426;11.182;2023-05-16T06:39:33;5.13;;;4.83;;
11537;SDS011;50159;49.426;11.182;2023-05-16T06:41:59;5.60;;;5.30;;
11537;SDS011;50159;49.426;11.182;2023-05-16T06:44:26;6.10;;;5.60;;
11537;SDS011;50159;49.426;11.182;2023-05-16T06:46:53;6.10;;;5.70;;
11537;SDS011;50159;49.426;11.182;2023-05-16T06:49:20;5.77;;;5.27;;
11537;SDS011;50159;49.426;11.182;2023-05-16T06:51:47;5.67;;;5.17;;
11537;SDS011;50159;49.426;11.182;2023-05-16T06:54:13;5.67;;;5.10;;
11537;SDS011;50159;49.426;11.182;2023-05-16T06:56:40;9.70;;;7.90;;
11537;SDS011;50159;49.426;11.182;2023-05-16T06:59:07;8.37;;;6.80;;
11537;SDS011;50159;49.426;11.182;2023-05-16T07:01:33;5.87;;;5.47;;
11537;SDS011;50159;49.426;11.182;2023-05-16T07:04:00;6.00;;;5.60;;
11537;SDS011;50159;49.426;11.182;2023-05-16T07:06:27;8.73;;;5.77;;
11537;SDS011;50159;49.426;11.182;2023-05-16T07:08:54;6.00;;;5.60;;
11537;SDS011;50159;49.426;11.182;2023-05-16T07:11:20;5.63;;;5.23;;
11537;SDS011;50159;49.426;11.182;2023-05-16T07:13:47;5.13;;;4.83;;
11537;SDS011;50159;49.426;11.182;2023-05-16T07:16:14;5.17;;;4.77;;
11537;SDS011;50159;49.426;11.182;2023-05-16T07:18:40;4.63;;;4.33;;
11537;SDS011;50159;49.426;11.182;2023-05-16T07:21:07;4.70;;;4.40;;
11537;SDS011;50159;49.426;11.182;2023-05-16T07:23:34;5.83;;;5.50;;
11537;SDS011;50159;49.426;11.182;2023-05-16T07:26:00;4.67;;;4.37;;
11537;SDS011;50159;49.426;11.182;2023-05-16T07:28:27;4.57;;;4.27;;
11537;SDS011;50159;49.426;11.182;2023-05-16T07:30:54;4.27;;;4.07;;
11537;SDS011;50159;49.426;11.182;2023-05-16T07:33:23;5.97;;;5.40;;
11537;SDS011;50159;49.426;11.182;2023-05-16T07:35:50;5.60;;;5.20;;
11537;SDS011;50159;49.426;11.182;2023-05-16T07:38:26;6.00;;;5.40;;
11537;SDS011;50159;49.426;11.182;2023-05-16T07:40:53;5.47;;;4.70;;
11537;SDS011;50159;49.426;11.182;2023-05-16T07:43:22;5.10;;;4.67;;
11537;SDS011;50159;49.426;11.182;2023-05-16T07:45:49;5.00;;;4.60;;
11537;SDS011;50159;49.426;11.182;2023-05-16T07:48:15;4.73;;;4.33;;
11537;SDS011;50159;49.426;11.182;2023-05-16T07:50:42;4.73;;;4.33;;
11537;SDS011;50159;49.426;11.182;2023-05-16T07:53:09;4.90;;;4.60;;
11537;SDS011;50159;49.426;11.182;2023-05-16T07:55:36;6.00;;;4.93;;
11537;SDS011;50159;49.426;11.182;2023-05-16T07:58:03;4.77;;;4.47;;
11537;SDS011;50159;49.426;11.182;2023-05-16T08:00:29;4.53;;;4.13;;
11537;SDS011;50159;49.426;11.182;2023-05-16T08:02:56;4.13;;;3.90;;
11537;SDS011;50159;49.426;11.182;2023-05-16T08:05:23;5.90;;;5.30;;
11537;SDS011;50159;49.426;11.182;2023-05-16T08:07:50;5.17;;;4.70;;
11537;SDS011;50159;49.426;11.182;2023-05-16T08:10:17;4.47;;;4.17;;
11537;SDS011;50159;49.426;11.182;2023-05-16T08:12:44;4.50;;;4.20;;
11537;SDS011;50159;49.426;11.182;2023-05-16T08:15:11;4.23;;;3.77;;
11537;SDS011;50159;49.426;11.182;2023-05-16T08:17:38;4.63;;;4.40;;
11537;SDS011;50159;49.426;11.182;2023-05-16T08:20:05;4.17;;;3.87;;
11537;SDS011;50159;49.426;11.182;2023-05-16T08:22:33;4.00;;;3.80;;
11537;SDS011;50159;49.426;11.182;2023-05-16T08:24:59;4.00;;;3.80;;
11537;SDS011;50159;49.426;11.182;2023-05-16T08:27:26;4.40;;;4.20;;
11537;SDS011;50159;49.426;11.182;2023-05-16T08:29:53;4.13;;;3.90;;
11537;SDS011;50159;49.426;11.182;2023-05-16T08:32:21;3.77;;;3.57;;
11537;SDS011;50159;49.426;11.182;2023-05-16T08:34:48;4.10;;;3.80;;
11537;SDS011;50159;49.426;11.182;2023-05-16T12:17:01;2.53;;;2.47;;
11537;SDS011;50159;49.426;11.182;2023-05-16T12:19:29;2.70;;;2.60;;
11537;SDS011;50159;49.426;11.182;2023-05-16T12:21:57;2.87;;;2.77;;
11537;SDS011;50159;49.426;11.182;2023-05-16T12:24:28;2.90;;;2.57;;
11537;SDS011;50159;49.426;11.182;2023-05-16T12:26:56;3.30;;;3.10;;
11537;SDS011;50159;49.426;11.182;2023-05-16T12:29:24;2.70;;;2.60;;
11537;SDS011;50159;49.426;11.182;2023-05-16T12:31:52;3.17;;;2.93;;
11537;SDS011;50159;49.426;11.182;2023-05-16T12:34:19;3.03;;;2.73;;
11537;SDS011;50159;49.426;11.182;2023-05-16T12:36:49;2.57;;;2.37;;
11537;SDS011;50159;49.426;11.182;2023-05-16T12:39:18;4.60;;;2.97;;
11537;SDS011;50159;49.426;11.182;2023-05-16T12:41:46;3.30;;;3.00;;
11537;SDS011;50159;49.426;11.182;2023-05-16T12:44:13;3.40;;;3.10;;
11537;SDS011;50159;49.426;11.182;2023-05-16T12:46:45;3.00;;;2.80;;
11537;SDS011;50159;49.426;11.182;2023-05-16T12:49:18;3.37;;;3.17;;
11537;SDS011;50159;49.426;11.182;2023-05-16T12:51:53;3.03;;;2.77;;
11537;SDS011;50159;49.426;11.182;2023-05-16T12:54:22;2.40;;;2.30;;
11537;SDS011;50159;49.426;11.182;2023-05-16T12:56:49;3.10;;;2.90;;
11537;SDS011;50159;49.426;11.182;2023-05-16T12:59:16;3.20;;;2.80;;
11537;SDS011;50159;49.426;11.182;2023-05-16T13:01:44;2.60;;;2.50;;
11537;SDS011;50159;49.426;11.182;2023-05-16T13:04:11;9.03;;;3.37;;
11537;SDS011;50159;49.426;11.182;2023-05-16T13:06:45;2.80;;;2.70;;
11537;SDS011;50159;49.426;11.182;2023-05-16T13:09:24;3.27;;;3.17;;
11537;SDS011;50159;49.426;11.182;2023-05-16T13:11:56;2.70;;;2.60;;
11537;SDS011;50159;49.426;11.182;2023-05-16T13:14:23;3.17;;;2.80;;
11537;SDS011;50159;49.426;11.182;2023-05-16T13:16:50;5.43;;;3.50;;
11537;SDS011;50159;49.426;11.182;2023-05-16T13:19:16;3.23;;;3.03;;
11537;SDS011;50159;49.426;11.182;2023-05-16T13:21:43;2.90;;;2.80;;
11537;SDS011;50159;49.426;11.182;2023-05-16T13:24:10;3.30;;;2.80;;
11537;SDS011;50159;49.426;11.182;2023-05-16T13:26:37;3.47;;;3.17;;
11537;SDS011;50159;49.426;11.182;2023-05-16T13:29:04;2.70;;;2.60;;
11537;SDS011;50159;49.426;11.182;2023-05-16T13:31:31;2.80;;;2.67;;
11537;SDS011;50159;49.426;11.182;2023-05-16T13:33:58;2.50;;;2.47;;
11537;SDS011;50159;49.426;11.182;2023-05-16T13:36:25;2.40;;;2.40;;
11537;SDS011;50159;49.426;11.182;2023-05-16T13:38:52;3.77;;;2.90;;
11537;SDS011;50159;49.426;11.182;2023-05-16T13:41:19;2.80;;;2.70;;
11537;SDS011;50159;49.426;11.182;2023-05-16T13:43:47;3.50;;;3.30;;
11537;SDS011;50159;49.426;11.182;2023-05-16T13:46:13;2.90;;;2.70;;
11537;SDS011;50159;49.426;11.182;2023-05-16T13:48:40;2.90;;;2.77;;
11537;SDS011;50159;49.426;11.182;2023-05-16T13:51:07;3.23;;;3.00;;
11537;SDS011;50159;49.426;11.182;2023-05-16T13:53:36;3.07;;;2.80;;
11537;SDS011;50159;49.426;11.182;2023-05-16T13:56:04;3.20;;;3.00;;
11537;SDS011;50159;49.426;11.182;2023-05-16T13:58:31;3.20;;;3.10;;
11537;SDS011;50159;49.426;11.182;2023-05-16T14:00:58;2.67;;;2.50;;
11537;SDS011;50159;49.426;11.182;2023-05-16T14:03:25;2.70;;;2.60;;
11537;SDS011;50159;49.426;11.182;2023-05-16T14:05:52;2.70;;;2.60;;
11537;SDS011;50159;49.426;11.182;2023-05-16T14:08:19;2.90;;;2.67;;
11537;SDS011;50159;49.426;11.182;2023-05-16T14:10:46;2.77;;;2.60;;
11537;SDS011;50159;49.426;11.182;2023-05-16T14:13:12;4.97;;;2.47;;
11537;SDS011;50159;49.426;11.182;2023-05-16T14:15:39;3.00;;;2.80;;
11537;SDS011;50159;49.426;11.182;2023-05-16T14:18:06;6.67;;;2.53;;
11537;SDS011;50159;49.426;11.182;2023-05-16T14:20:33;2.60;;;2.50;;
11537;SDS011;50159;49.426;11.182;2023-05-16T14:23:00;3.77;;;2.80;;
11537;SDS011;50159;49.426;11.182;2023-05-16T14:25:27;2.50;;;2.40;;
11537;SDS011;50159;49.426;11.182;2023-05-16T14:27:55;5.57;;;2.47;;
11537;SDS011;50159;49.426;11.182;2023-05-16T14:30:21;2.00;;;2.00;;
11537;SDS011;50159;49.426;11.182;2023-05-16T14:32:48;2.07;;;2.00;;
11537;SDS011;50159;49.426;11.182;2023-05-16T14:35:15;3.07;;;1.97;;
11537;SDS011;50159;49.426;11.182;2023-05-16T14:37:42;2.00;;;2.00;;
11537;SDS011;50159;49.426;11.182;2023-05-16T14:40:09;2.10;;;2.00;;
11537;SDS011;50159;49.426;11.182;2023-05-16T14:42:37;2.20;;;2.10;;
11537;SDS011;50159;49.426;11.182;2023-05-16T14:45:05;2.50;;;2.40;;
11537;SDS011;50159;49.426;11.182;2023-05-16T14:47:32;2.60;;;2.40;;
11537;SDS011;50159;49.426;11.182;2023-05-16T14:49:59;1.80;;;1.80;;
11537;SDS011;50159;49.426;11.182;2023-05-16T14:52:26;2.10;;;2.00;;
11537;SDS011;50159;49.426;11.182;2023-05-16T14:54:53;2.67;;;2.57;;
11537;SDS011;50159;49.426;11.182;2023-05-16T14:57:20;2.93;;;2.00;;
11537;SDS011;50159;49.426;11.182;2023-05-16T14:59:47;1.83;;;1.83;;
11537;SDS011;50159;49.426;11.182;2023-05-16T15:02:14;1.97;;;1.97;;
11537;SDS011;50159;49.426;11.182;2023-05-16T15:04:41;2.27;;;2.17;;
11537;SDS011;50159;49.426;11.182;2023-05-16T15:07:08;2.60;;;2.50;;
11537;SDS011;50159;49.426;11.182;2023-05-16T15:09:35;2.10;;;2.10;;
11537;SDS011;50159;49.426;11.182;2023-05-16T15:12:02;2.00;;;2.00;;
11537;SDS011;50159;49.426;11.182;2023-05-16T15:14:30;2.27;;;2.17;;
11537;SDS011;50159;49.426;11.182;2023-05-16T15:16:56;2.00;;;2.00;;
11537;SDS011;50159;49.426;11.182;2023-05-16T15:19:23;1.70;;;1.70;;
11537;SDS011;50159;49.426;11.182;2023-05-16T15:21:51;2.10;;;2.10;;
11537;SDS011;50159;49.426;11.182;2023-05-16T15:24:18;2.10;;;2.00;;
11537;SDS011;50159;49.426;11.182;2023-05-16T15:26:45;2.00;;;2.00;;
11537;SDS011;50159;49.426;11.182;2023-05-16T15:29:11;2.07;;;2.00;;
11537;SDS011;50159;49.426;11.182;2023-05-16T15:31:38;2.23;;;2.13;;
11537;SDS011;50159;49.426;11.182;2023-05-16T15:34:05;3.70;;;2.30;;
11537;SDS011;50159;49.426;11.182;2023-05-16T15:36:33;2.00;;;2.00;;
11537;SDS011;50159;49.426;11.182;2023-05-16T15:39:00;2.20;;;2.10;;
11537;SDS011;50159;49.426;11.182;2023-05-16T15:41:27;2.37;;;2.27;;
11537;SDS011;50159;49.426;11.182;2023-05-16T15:44:14;2.10;;;2.10;;
11537;SDS011;50159;49.426;11.182;2023-05-16T15:46:41;2.23;;;2.13;;
11537;SDS011;50159;49.426;11.182;2023-05-16T15:49:07;2.10;;;1.90;;
11537;SDS011;50159;49.426;11.182;2023-05-16T15:51:34;3.60;;;2.30;;
11537;SDS011;50159;49.426;11.182;2023-05-16T15:54:01;2.07;;;1.97;;
11537;SDS011;50159;49.426;11.182;2023-05-16T15:56:28;1.77;;;1.77;;
11537;SDS011;50159;49.426;11.182;2023-05-16T15:58:55;1.70;;;1.70;;
11537;SDS011;50159;49.426;11.182;2023-05-16T16:01:22;1.90;;;1.87;;
11537;SDS011;50159;49.426;11.182;2023-05-16T16:03:49;1.77;;;1.73;;
11537;SDS011;50159;49.426;11.182;2023-05-16T16:06:16;3.07;;;1.80;;
11537;SDS011;50159;49.426;11.182;2023-05-16T16:08:43;1.60;;;1.60;;
11537;SDS011;50159;49.426;11.182;2023-05-16T16:11:10;2.20;;;2.10;;
11537;SDS011;50159;49.426;11.182;2023-05-16T16:13:37;2.20;;;2.10;;
11537;SDS011;50159;49.426;11.182;2023-05-16T16:16:04;2.00;;;2.00;;
11537;SDS011;50159;49.426;11.182;2023-05-16T16:18:31;2.63;;;2.50;;
11537;SDS011;50159;49.426;11.182;2023-05-16T16:20:59;2.07;;;1.97;;
11537;SDS011;50159;49.426;11.182;2023-05-16T16:23:26;3.00;;;2.80;;
11537;SDS011;50159;49.426;11.182;2023-05-16T16:25:53;1.90;;;1.80;;
11537;SDS011;50159;49.426;11.182;2023-05-16T16:28:20;2.10;;;2.00;;
11537;SDS011;50159;49.426;11.182;2023-05-16T16:30:47;2.00;;;1.90;;
11537;SDS011;50159;49.426;11.182;2023-05-16T16:33:15;2.30;;;2.10;;
11537;SDS011;50159;49.426;11.182;2023-05-16T16:35:42;3.30;;;2.27;;
11537;SDS011;50159;49.426;11.182;2023-05-16T16:38:09;1.80;;;1.80;;
11537;SDS011;50159;49.426;11.182;2023-05-16T16:40:36;2.33;;;1.80;;
11537;SDS011;50159;49.426;11.182;2023-05-16T16:43:03;1.90;;;1.90;;
11537;SDS011;50159;49.426;11.182;2023-05-16T16:45:32;1.97;;;1.80;;
11537;SDS011;50159;49.426;11.182;2023-05-16T16:47:58;2.03;;;2.03;;
11537;SDS011;50159;49.426;11.182;2023-05-16T16:50:25;2.53;;;2.33;;
11537;SDS011;50159;49.426;11.182;2023-05-16T16:52:52;6.57;;;4.40;;
11537;SDS011;50159;49.426;11.182;2023-05-16T16:55:19;3.07;;;2.80;;
11537;SDS011;50159;49.426;11.182;2023-05-16T16:57:47;2.40;;;2.30;;
11537;SDS011;50159;49.426;11.182;2023-05-16T17:00:13;2.30;;;2.20;;
11537;SDS011;50159;49.426;11.182;2023-05-16T17:02:41;2.30;;;2.20;;
11537;SDS011;50159;49.426;11.182;2023-05-16T17:05:09;2.20;;;2.10;;
11537;SDS011;50159;49.426;11.182;2023-05-16T17:07:36;2.00;;;2.00;;
11537;SDS011;50159;49.426;11.182;2023-05-16T17:10:03;2.43;;;2.30;;
11537;SDS011;50159;49.426;11.182;2023-05-16T17:12:30;2.20;;;2.10;;
11537;SDS011;50159;49.426;11.182;2023-05-16T17:15:00;2.10;;;2.00;;
11537;SDS011;50159;49.426;11.182;2023-05-16T17:17:27;2.20;;;2.10;;
11537;SDS011;50159;49.426;11.182;2023-05-16T17:19:54;2.17;;;2.07;;
11537;SDS011;50159;49.426;11.182;2023-05-16T17:22:21;2.30;;;2.13;;
11537;SDS011;50159;49.426;11.182;2023-05-16T17:24:48;1.83;;;1.83;;
11537;SDS011;50159;49.426;11.182;2023-05-16T17:27:15;2.50;;;2.40;;
11537;SDS011;50159;49.426;11.182;2023-05-16T17:29:42;2.20;;;2.10;;
11537;SDS011;50159;49.426;11.182;2023-05-16T17:32:08;2.30;;;2.20;;
11537;SDS011;50159;49.426;11.182;2023-05-16T17:34:35;2.00;;;1.90;;
11537;SDS011;50159;49.426;11.182;2023-05-16T17:37:02;2.23;;;2.10;;
11537;SDS011;50159;49.426;11.182;2023-05-16T17:39:31;2.77;;;2.40;;
11537;SDS011;50159;49.426;11.182;2023-05-16T17:41:59;1.80;;;1.80;;
11537;SDS011;50159;49.426;11.182;2023-05-16T17:44:26;1.80;;;1.80;;
11537;SDS011;50159;49.426;11.182;2023-05-16T17:46:52;2.40;;;2.10;;
11537;SDS011;50159;49.426;11.182;2023-05-16T17:49:19;2.10;;;2.00;;
11537;SDS011;50159;49.426;11.182;2023-05-16T17:51:52;2.10;;;1.90;;
11537;SDS011;50159;49.426;11.182;2023-05-16T17:54:21;2.20;;;2.10;;
11537;SDS011;50159;49.426;11.182;2023-05-16T17:56:49;2.30;;;2.20;;
11537;SDS011;50159;49.426;11.182;2023-05-16T17:59:16;2.30;;;2.13;;
11537;SDS011;50159;49.426;11.182;2023-05-16T18:01:46;2.77;;;2.53;;
11537;SDS011;50159;49.426;11.182;2023-05-16T18:04:13;2.23;;;2.13;;
11537;SDS011;50159;49.426;11.182;2023-05-16T18:06:40;2.20;;;2.10;;
11537;SDS011;50159;49.426;11.182;2023-05-16T18:09:07;3.47;;;2.20;;
11537;SDS011;50159;49.426;11.182;2023-05-16T18:11:40;2.00;;;1.87;;
11537;SDS011;50159;49.426;11.182;2023-05-16T18:14:07;2.40;;;2.30;;
11537;SDS011;50159;49.426;11.182;2023-05-16T18:16:34;2.60;;;2.40;;
11537;SDS011;50159;49.426;11.182;2023-05-16T18:19:01;2.10;;;2.00;;
11537;SDS011;50159;49.426;11.182;2023-05-16T18:21:30;5.97;;;1.80;;
11537;SDS011;50159;49.426;11.182;2023-05-16T18:23:57;2.07;;;1.70;;
11537;SDS011;50159;49.426;11.182;2023-05-16T18:26:25;2.73;;;2.53;;
11537;SDS011;50159;49.426;11.182;2023-05-16T18:28:53;2.00;;;1.83;;
11537;SDS011;50159;49.426;11.182;2023-05-16T18:31:23;2.30;;;2.00;;